sensor_id;sensor_type;location;lat;lon;timestamp;P1;durP1;ratioP1;P2;durP2;ratioP2
21798;SDS011;24973;47.178;15.316;2022-09-16T00:00:53;5.97;;;1.40;;
21798;SDS011;24973;47.178;15.316;2022-09-16T00:03:44;2.83;;;1.67;;
21798;SDS011;24973;47.178;15.316;2022-09-16T00:06:34;7.00;;;1.30;;
21798;SDS011;24973;47.178;15.316;2022-09-16T00:09:22;2.77;;;2.57;;
21798;SDS011;24973;47.178;15.316;2022-09-16T00:12:11;5.73;;;1.30;;
21798;SDS011;24973;47.178;15.316;2022-09-16T00:15:00;0.87;;;0.87;;
21798;SDS011;24973;47.178;15.316;2022-09-16T00:17:49;2.77;;;1.33;;
21798;SDS011;24973;47.178;15.316;2022-09-16T00:20:43;4.03;;;1.40;;
21798;SDS011;24973;47.178;15.316;2022-09-16T00:23:33;2.37;;;1.10;;
21798;SDS011;24973;47.178;15.316;2022-09-16T00:26:22;3.30;;;1.27;;
21798;SDS011;24973;47.178;15.316;2022-09-16T00:29:11;3.73;;;1.53;;
21798;SDS011;24973;47.178;15.316;2022-09-16T00:32:00;3.73;;;1.30;;
21798;SDS011;24973;47.178;15.316;2022-09-16T00:34:50;2.67;;;1.07;;
21798;SDS011;24973;47.178;15.316;2022-09-16T00:37:40;3.47;;;1.30;;
21798;SDS011;24973;47.178;15.316;2022-09-16T00:40:28;5.90;;;1.20;;
21798;SDS011;24973;47.178;15.316;2022-09-16T00:43:18;1.90;;;1.43;;
21798;SDS011;24973;47.178;15.316;2022-09-16T00:46:07;2.87;;;1.47;;
21798;SDS011;24973;47.178;15.316;2022-09-16T00:48:56;4.83;;;2.40;;
21798;SDS011;24973;47.178;15.316;2022-09-16T00:51:48;3.27;;;1.03;;
21798;SDS011;24973;47.178;15.316;2022-09-16T00:54:44;1.33;;;0.97;;
21798;SDS011;24973;47.178;15.316;2022-09-16T00:57:34;2.70;;;1.10;;
21798;SDS011;24973;47.178;15.316;2022-09-16T01:00:24;2.20;;;0.90;;
21798;SDS011;24973;47.178;15.316;2022-09-16T01:03:13;2.17;;;0.83;;
21798;SDS011;24973;47.178;15.316;2022-09-16T01:06:02;5.13;;;1.03;;
21798;SDS011;24973;47.178;15.316;2022-09-16T01:08:51;5.13;;;1.30;;
21798;SDS011;24973;47.178;15.316;2022-09-16T01:11:42;1.00;;;0.90;;
21798;SDS011;24973;47.178;15.316;2022-09-16T01:14:31;1.13;;;0.93;;
21798;SDS011;24973;47.178;15.316;2022-09-16T01:17:44;1.53;;;1.10;;
21798;SDS011;24973;47.178;15.316;2022-09-16T01:20:57;2.27;;;1.03;;
21798;SDS011;24973;47.178;15.316;2022-09-16T01:24:24;1.30;;;1.20;;
21798;SDS011;24973;47.178;15.316;2022-09-16T01:27:42;2.20;;;1.47;;
21798;SDS011;24973;47.178;15.316;2022-09-16T01:31:02;3.00;;;0.83;;
21798;SDS011;24973;47.178;15.316;2022-09-16T01:34:01;2.10;;;1.50;;
21798;SDS011;24973;47.178;15.316;2022-09-16T01:36:58;2.03;;;1.00;;
21798;SDS011;24973;47.178;15.316;2022-09-16T01:39:54;2.73;;;1.40;;
21798;SDS011;24973;47.178;15.316;2022-09-16T01:42:53;2.53;;;1.00;;
21798;SDS011;24973;47.178;15.316;2022-09-16T01:45:52;4.83;;;2.90;;
21798;SDS011;24973;47.178;15.316;2022-09-16T01:48:46;2.60;;;1.13;;
21798;SDS011;24973;47.178;15.316;2022-09-16T01:51:43;4.90;;;1.30;;
21798;SDS011;24973;47.178;15.316;2022-09-16T01:54:38;2.53;;;1.27;;
21798;SDS011;24973;47.178;15.316;2022-09-16T01:57:32;5.63;;;1.17;;
21798;SDS011;24973;47.178;15.316;2022-09-16T02:00:26;6.37;;;1.33;;
21798;SDS011;24973;47.178;15.316;2022-09-16T02:03:17;1.77;;;1.10;;
21798;SDS011;24973;47.178;15.316;2022-09-16T02:06:12;1.30;;;0.80;;
21798;SDS011;24973;47.178;15.316;2022-09-16T02:09:07;2.57;;;1.03;;
21798;SDS011;24973;47.178;15.316;2022-09-16T02:12:00;2.00;;;1.20;;
21798;SDS011;24973;47.178;15.316;2022-09-16T02:14:56;1.17;;;1.07;;
21798;SDS011;24973;47.178;15.316;2022-09-16T02:17:51;2.53;;;1.00;;
21798;SDS011;24973;47.178;15.316;2022-09-16T02:20:45;2.47;;;1.10;;
21798;SDS011;24973;47.178;15.316;2022-09-16T02:23:37;1.70;;;1.00;;
21798;SDS011;24973;47.178;15.316;2022-09-16T02:26:32;2.03;;;1.10;;
21798;SDS011;24973;47.178;15.316;2022-09-16T02:29:27;3.17;;;1.10;;
21798;SDS011;24973;47.178;15.316;2022-09-16T02:32:25;1.43;;;1.00;;
21798;SDS011;24973;47.178;15.316;2022-09-16T02:35:17;1.33;;;1.10;;
21798;SDS011;24973;47.178;15.316;2022-09-16T02:38:09;4.90;;;4.50;;
21798;SDS011;24973;47.178;15.316;2022-09-16T02:41:03;2.10;;;1.40;;
21798;SDS011;24973;47.178;15.316;2022-09-16T02:43:52;2.40;;;1.53;;
21798;SDS011;24973;47.178;15.316;2022-09-16T02:46:42;2.27;;;1.60;;
21798;SDS011;24973;47.178;15.316;2022-09-16T02:49:43;3.17;;;1.83;;
21798;SDS011;24973;47.178;15.316;2022-09-16T02:52:42;2.27;;;1.50;;
21798;SDS011;24973;47.178;15.316;2022-09-16T02:55:41;2.20;;;1.50;;
21798;SDS011;24973;47.178;15.316;2022-09-16T02:58:40;1.07;;;0.97;;
21798;SDS011;24973;47.178;15.316;2022-09-16T03:01:29;2.03;;;1.20;;
21798;SDS011;24973;47.178;15.316;2022-09-16T03:04:27;2.40;;;1.47;;
21798;SDS011;24973;47.178;15.316;2022-09-16T03:07:15;1.60;;;1.20;;
21798;SDS011;24973;47.178;15.316;2022-09-16T03:10:05;1.20;;;0.93;;
21798;SDS011;24973;47.178;15.316;2022-09-16T03:12:57;6.77;;;1.50;;
21798;SDS011;24973;47.178;15.316;2022-09-16T03:15:55;5.53;;;1.37;;
21798;SDS011;24973;47.178;15.316;2022-09-16T03:18:55;3.70;;;1.43;;
21798;SDS011;24973;47.178;15.316;2022-09-16T03:21:57;1.50;;;1.10;;
21798;SDS011;24973;47.178;15.316;2022-09-16T03:24:52;2.13;;;1.23;;
21798;SDS011;24973;47.178;15.316;2022-09-16T03:27:49;1.50;;;0.97;;
21798;SDS011;24973;47.178;15.316;2022-09-16T03:30:44;1.60;;;1.20;;
21798;SDS011;24973;47.178;15.316;2022-09-16T03:33:42;1.73;;;1.30;;
21798;SDS011;24973;47.178;15.316;2022-09-16T03:36:38;1.77;;;1.33;;
21798;SDS011;24973;47.178;15.316;2022-09-16T03:39:32;1.07;;;0.93;;
21798;SDS011;24973;47.178;15.316;2022-09-16T03:42:21;1.87;;;1.50;;
21798;SDS011;24973;47.178;15.316;2022-09-16T03:45:12;5.93;;;1.63;;
21798;SDS011;24973;47.178;15.316;2022-09-16T03:48:04;1.33;;;1.17;;
21798;SDS011;24973;47.178;15.316;2022-09-16T03:50:55;5.70;;;1.83;;
21798;SDS011;24973;47.178;15.316;2022-09-16T03:53:43;5.30;;;1.13;;
21798;SDS011;24973;47.178;15.316;2022-09-16T03:56:32;1.63;;;1.30;;
21798;SDS011;24973;47.178;15.316;2022-09-16T03:59:21;1.60;;;1.50;;
21798;SDS011;24973;47.178;15.316;2022-09-16T04:02:09;1.50;;;1.40;;
21798;SDS011;24973;47.178;15.316;2022-09-16T04:04:58;1.90;;;1.40;;
21798;SDS011;24973;47.178;15.316;2022-09-16T04:07:48;4.93;;;1.63;;
21798;SDS011;24973;47.178;15.316;2022-09-16T04:10:37;3.70;;;1.30;;
21798;SDS011;24973;47.178;15.316;2022-09-16T04:13:28;1.60;;;1.40;;
21798;SDS011;24973;47.178;15.316;2022-09-16T04:16:20;5.47;;;1.47;;
21798;SDS011;24973;47.178;15.316;2022-09-16T04:19:10;2.03;;;1.47;;
21798;SDS011;24973;47.178;15.316;2022-09-16T04:22:00;1.63;;;1.20;;
21798;SDS011;24973;47.178;15.316;2022-09-16T04:24:50;3.13;;;1.50;;
21798;SDS011;24973;47.178;15.316;2022-09-16T04:27:39;1.67;;;1.50;;
21798;SDS011;24973;47.178;15.316;2022-09-16T04:30:27;1.97;;;1.67;;
21798;SDS011;24973;47.178;15.316;2022-09-16T04:33:16;2.27;;;1.77;;
21798;SDS011;24973;47.178;15.316;2022-09-16T04:36:06;1.53;;;1.43;;
21798;SDS011;24973;47.178;15.316;2022-09-16T04:38:57;1.50;;;1.40;;
21798;SDS011;24973;47.178;15.316;2022-09-16T04:41:47;2.03;;;1.47;;
21798;SDS011;24973;47.178;15.316;2022-09-16T04:44:36;3.07;;;1.70;;
21798;SDS011;24973;47.178;15.316;2022-09-16T04:47:25;2.53;;;2.30;;
21798;SDS011;24973;47.178;15.316;2022-09-16T04:50:14;2.43;;;1.90;;
21798;SDS011;24973;47.178;15.316;2022-09-16T04:53:03;1.77;;;1.43;;
21798;SDS011;24973;47.178;15.316;2022-09-16T04:55:52;6.63;;;2.20;;
21798;SDS011;24973;47.178;15.316;2022-09-16T04:58:42;2.60;;;1.97;;
21798;SDS011;24973;47.178;15.316;2022-09-16T05:01:33;1.93;;;1.70;;
21798;SDS011;24973;47.178;15.316;2022-09-16T05:04:24;2.63;;;1.63;;
21798;SDS011;24973;47.178;15.316;2022-09-16T05:07:13;4.83;;;1.80;;
21798;SDS011;24973;47.178;15.316;2022-09-16T05:10:01;1.97;;;1.63;;
21798;SDS011;24973;47.178;15.316;2022-09-16T05:12:51;1.47;;;1.37;;
21798;SDS011;24973;47.178;15.316;2022-09-16T05:15:42;2.30;;;1.70;;
21798;SDS011;24973;47.178;15.316;2022-09-16T05:18:33;2.07;;;1.57;;
21798;SDS011;24973;47.178;15.316;2022-09-16T05:21:23;2.40;;;2.03;;
21798;SDS011;24973;47.178;15.316;2022-09-16T05:24:13;3.40;;;2.10;;
21798;SDS011;24973;47.178;15.316;2022-09-16T05:27:02;4.53;;;1.43;;
21798;SDS011;24973;47.178;15.316;2022-09-16T05:29:51;3.90;;;1.73;;
21798;SDS011;24973;47.178;15.316;2022-09-16T05:32:41;2.20;;;1.80;;
21798;SDS011;24973;47.178;15.316;2022-09-16T05:35:29;5.93;;;1.80;;
21798;SDS011;24973;47.178;15.316;2022-09-16T05:38:18;2.23;;;2.00;;
21798;SDS011;24973;47.178;15.316;2022-09-16T05:41:06;1.60;;;1.50;;
21798;SDS011;24973;47.178;15.316;2022-09-16T05:43:56;1.70;;;1.60;;
21798;SDS011;24973;47.178;15.316;2022-09-16T05:46:46;1.87;;;1.67;;
21798;SDS011;24973;47.178;15.316;2022-09-16T05:49:36;1.90;;;1.77;;
21798;SDS011;24973;47.178;15.316;2022-09-16T05:52:25;2.10;;;1.93;;
21798;SDS011;24973;47.178;15.316;2022-09-16T05:55:14;3.07;;;1.97;;
21798;SDS011;24973;47.178;15.316;2022-09-16T05:58:03;1.97;;;1.67;;
21798;SDS011;24973;47.178;15.316;2022-09-16T06:00:56;2.17;;;1.97;;
21798;SDS011;24973;47.178;15.316;2022-09-16T06:03:46;3.60;;;1.63;;
21798;SDS011;24973;47.178;15.316;2022-09-16T06:06:38;2.17;;;1.97;;
21798;SDS011;24973;47.178;15.316;2022-09-16T06:09:28;2.13;;;1.87;;
21798;SDS011;24973;47.178;15.316;2022-09-16T06:12:17;2.47;;;1.80;;
21798;SDS011;24973;47.178;15.316;2022-09-16T06:15:06;2.20;;;1.80;;
21798;SDS011;24973;47.178;15.316;2022-09-16T06:17:56;4.47;;;2.03;;
21798;SDS011;24973;47.178;15.316;2022-09-16T06:20:47;2.90;;;2.60;;
21798;SDS011;24973;47.178;15.316;2022-09-16T06:23:38;2.27;;;1.80;;
21798;SDS011;24973;47.178;15.316;2022-09-16T06:26:27;1.93;;;1.73;;
21798;SDS011;24973;47.178;15.316;2022-09-16T06:29:17;2.30;;;2.00;;
21798;SDS011;24973;47.178;15.316;2022-09-16T06:32:06;8.57;;;7.67;;
21798;SDS011;24973;47.178;15.316;2022-09-16T06:34:54;4.50;;;4.10;;
21798;SDS011;24973;47.178;15.316;2022-09-16T06:37:43;2.30;;;2.10;;
21798;SDS011;24973;47.178;15.316;2022-09-16T06:40:33;2.00;;;1.83;;
21798;SDS011;24973;47.178;15.316;2022-09-16T06:43:21;1.83;;;1.63;;
21798;SDS011;24973;47.178;15.316;2022-09-16T06:46:11;5.23;;;2.23;;
21798;SDS011;24973;47.178;15.316;2022-09-16T06:49:02;3.83;;;2.27;;
21798;SDS011;24973;47.178;15.316;2022-09-16T06:51:52;2.70;;;1.93;;
21798;SDS011;24973;47.178;15.316;2022-09-16T06:54:40;2.47;;;1.90;;
21798;SDS011;24973;47.178;15.316;2022-09-16T06:57:30;3.67;;;2.27;;
21798;SDS011;24973;47.178;15.316;2022-09-16T07:00:19;4.50;;;2.60;;
21798;SDS011;24973;47.178;15.316;2022-09-16T07:03:08;2.70;;;2.03;;
21798;SDS011;24973;47.178;15.316;2022-09-16T07:05:56;2.60;;;2.27;;
21798;SDS011;24973;47.178;15.316;2022-09-16T07:08:47;3.73;;;2.30;;
21798;SDS011;24973;47.178;15.316;2022-09-16T07:11:36;5.57;;;2.57;;
21798;SDS011;24973;47.178;15.316;2022-09-16T07:14:27;2.77;;;2.10;;
21798;SDS011;24973;47.178;15.316;2022-09-16T07:17:18;3.80;;;2.07;;
21798;SDS011;24973;47.178;15.316;2022-09-16T07:20:09;2.67;;;2.30;;
21798;SDS011;24973;47.178;15.316;2022-09-16T07:22:57;3.17;;;2.17;;
21798;SDS011;24973;47.178;15.316;2022-09-16T07:25:46;2.37;;;2.03;;
21798;SDS011;24973;47.178;15.316;2022-09-16T07:28:35;2.87;;;2.60;;
21798;SDS011;24973;47.178;15.316;2022-09-16T07:31:27;3.27;;;3.00;;
21798;SDS011;24973;47.178;15.316;2022-09-16T07:34:17;4.50;;;3.40;;
21798;SDS011;24973;47.178;15.316;2022-09-16T07:37:06;6.47;;;2.83;;
21798;SDS011;24973;47.178;15.316;2022-09-16T07:39:55;2.97;;;2.67;;
21798;SDS011;24973;47.178;15.316;2022-09-16T07:42:44;4.83;;;3.00;;
21798;SDS011;24973;47.178;15.316;2022-09-16T07:45:32;3.30;;;3.00;;
21798;SDS011;24973;47.178;15.316;2022-09-16T07:48:27;9.57;;;3.43;;
21798;SDS011;24973;47.178;15.316;2022-09-16T07:50:53;4.93;;;4.00;;
21798;SDS011;24973;47.178;15.316;2022-09-16T07:53:43;3.80;;;3.27;;
21798;SDS011;24973;47.178;15.316;2022-09-16T07:56:33;3.43;;;2.97;;
21798;SDS011;24973;47.178;15.316;2022-09-16T07:59:24;4.33;;;3.27;;
21798;SDS011;24973;47.178;15.316;2022-09-16T08:02:13;7.30;;;2.90;;
21798;SDS011;24973;47.178;15.316;2022-09-16T08:05:04;4.93;;;3.17;;
21798;SDS011;24973;47.178;15.316;2022-09-16T08:07:53;6.97;;;2.70;;
21798;SDS011;24973;47.178;15.316;2022-09-16T08:10:42;3.53;;;2.53;;
21798;SDS011;24973;47.178;15.316;2022-09-16T08:13:31;3.80;;;3.40;;
21798;SDS011;24973;47.178;15.316;2022-09-16T08:16:21;3.30;;;2.93;;
21798;SDS011;24973;47.178;15.316;2022-09-16T08:19:10;4.03;;;3.20;;
21798;SDS011;24973;47.178;15.316;2022-09-16T08:22:00;3.17;;;2.97;;
21798;SDS011;24973;47.178;15.316;2022-09-16T08:24:49;3.47;;;3.03;;
21798;SDS011;24973;47.178;15.316;2022-09-16T08:27:38;3.20;;;2.90;;
21798;SDS011;24973;47.178;15.316;2022-09-16T08:30:26;3.40;;;3.10;;
21798;SDS011;24973;47.178;15.316;2022-09-16T08:33:15;4.67;;;3.43;;
21798;SDS011;24973;47.178;15.316;2022-09-16T08:36:10;3.37;;;3.07;;
21798;SDS011;24973;47.178;15.316;2022-09-16T08:39:03;6.10;;;3.63;;
21798;SDS011;24973;47.178;15.316;2022-09-16T08:45:18;3.20;;;2.90;;
21798;SDS011;24973;47.178;15.316;2022-09-16T08:48:18;3.50;;;3.20;;
21798;SDS011;24973;47.178;15.316;2022-09-16T08:51:18;2.77;;;2.43;;
21798;SDS011;24973;47.178;15.316;2022-09-16T08:54:11;11.73;;;6.30;;
21798;SDS011;24973;47.178;15.316;2022-09-16T08:57:10;8.13;;;4.30;;
21798;SDS011;24973;47.178;15.316;2022-09-16T09:00:04;1.73;;;1.53;;
21798;SDS011;24973;47.178;15.316;2022-09-16T09:03:01;1.07;;;1.03;;
21798;SDS011;24973;47.178;15.316;2022-09-16T09:05:59;0.80;;;0.77;;
21798;SDS011;24973;47.178;15.316;2022-09-16T09:08:55;0.60;;;0.60;;
21798;SDS011;24973;47.178;15.316;2022-09-16T09:11:58;0.80;;;0.80;;
21798;SDS011;24973;47.178;15.316;2022-09-16T09:14:59;0.60;;;0.60;;
21798;SDS011;24973;47.178;15.316;2022-09-16T09:18:03;1.30;;;1.20;;
21798;SDS011;24973;47.178;15.316;2022-09-16T09:21:13;2.80;;;1.10;;
21798;SDS011;24973;47.178;15.316;2022-09-16T09:24:18;1.37;;;1.00;;
21798;SDS011;24973;47.178;15.316;2022-09-16T09:27:34;0.70;;;0.67;;
21798;SDS011;24973;47.178;15.316;2022-09-16T09:30:32;0.80;;;0.80;;
21798;SDS011;24973;47.178;15.316;2022-09-16T09:33:26;1.03;;;0.83;;
21798;SDS011;24973;47.178;15.316;2022-09-16T09:36:35;1.73;;;0.90;;
21798;SDS011;24973;47.178;15.316;2022-09-16T09:39:39;0.90;;;0.80;;
21798;SDS011;24973;47.178;15.316;2022-09-16T09:42:39;0.63;;;0.63;;
21798;SDS011;24973;47.178;15.316;2022-09-16T09:45:34;0.63;;;0.63;;
21798;SDS011;24973;47.178;15.316;2022-09-16T09:48:28;0.80;;;0.67;;
21798;SDS011;24973;47.178;15.316;2022-09-16T09:51:23;0.50;;;0.50;;
21798;SDS011;24973;47.178;15.316;2022-09-16T09:54:21;0.90;;;0.70;;
21798;SDS011;24973;47.178;15.316;2022-09-16T09:57:18;0.80;;;0.80;;
21798;SDS011;24973;47.178;15.316;2022-09-16T10:00:17;0.73;;;0.73;;
21798;SDS011;24973;47.178;15.316;2022-09-16T10:03:09;2.03;;;0.90;;
21798;SDS011;24973;47.178;15.316;2022-09-16T10:06:00;2.30;;;0.90;;
21798;SDS011;24973;47.178;15.316;2022-09-16T10:08:49;1.47;;;1.07;;
21798;SDS011;24973;47.178;15.316;2022-09-16T10:11:44;1.03;;;0.93;;
21798;SDS011;24973;47.178;15.316;2022-09-16T10:14:36;0.80;;;0.80;;
21798;SDS011;24973;47.178;15.316;2022-09-16T10:17:28;0.60;;;0.60;;
21798;SDS011;24973;47.178;15.316;2022-09-16T10:20:24;0.50;;;0.50;;
21798;SDS011;24973;47.178;15.316;2022-09-16T10:23:19;0.63;;;0.63;;
21798;SDS011;24973;47.178;15.316;2022-09-16T10:26:17;0.70;;;0.70;;
21798;SDS011;24973;47.178;15.316;2022-09-16T10:29:13;0.67;;;0.67;;
21798;SDS011;24973;47.178;15.316;2022-09-16T10:32:05;1.80;;;0.87;;
21798;SDS011;24973;47.178;15.316;2022-09-16T10:35:04;0.80;;;0.80;;
21798;SDS011;24973;47.178;15.316;2022-09-16T10:37:55;1.30;;;1.20;;
21798;SDS011;24973;47.178;15.316;2022-09-16T10:40:49;1.63;;;1.27;;
21798;SDS011;24973;47.178;15.316;2022-09-16T10:43:44;1.90;;;1.80;;
21798;SDS011;24973;47.178;15.316;2022-09-16T10:46:36;1.10;;;0.80;;
21798;SDS011;24973;47.178;15.316;2022-09-16T10:49:27;2.70;;;0.90;;
21798;SDS011;24973;47.178;15.316;2022-09-16T10:52:24;2.30;;;1.10;;
21798;SDS011;24973;47.178;15.316;2022-09-16T10:55:23;1.00;;;0.83;;
21798;SDS011;24973;47.178;15.316;2022-09-16T10:58:15;1.17;;;1.00;;
21798;SDS011;24973;47.178;15.316;2022-09-16T11:01:13;1.40;;;1.20;;
21798;SDS011;24973;47.178;15.316;2022-09-16T11:04:28;1.10;;;1.00;;
21798;SDS011;24973;47.178;15.316;2022-09-16T11:07:39;0.70;;;0.70;;
21798;SDS011;24973;47.178;15.316;2022-09-16T11:10:35;0.83;;;0.63;;
21798;SDS011;24973;47.178;15.316;2022-09-16T11:13:34;0.67;;;0.67;;
21798;SDS011;24973;47.178;15.316;2022-09-16T11:16:43;0.60;;;0.60;;
21798;SDS011;24973;47.178;15.316;2022-09-16T11:19:54;0.67;;;0.50;;
21798;SDS011;24973;47.178;15.316;2022-09-16T11:23:04;3.10;;;0.70;;
21798;SDS011;24973;47.178;15.316;2022-09-16T11:26:06;1.00;;;0.90;;
21798;SDS011;24973;47.178;15.316;2022-09-16T11:29:09;0.87;;;0.80;;
21798;SDS011;24973;47.178;15.316;2022-09-16T11:32:32;3.23;;;0.80;;
21798;SDS011;24973;47.178;15.316;2022-09-16T11:35:55;1.40;;;1.00;;
21798;SDS011;24973;47.178;15.316;2022-09-16T11:39:04;0.87;;;0.80;;
21798;SDS011;24973;47.178;15.316;2022-09-16T11:42:10;1.17;;;1.07;;
21798;SDS011;24973;47.178;15.316;2022-09-16T11:45:17;1.50;;;1.40;;
21798;SDS011;24973;47.178;15.316;2022-09-16T11:48:33;1.30;;;1.20;;
21798;SDS011;24973;47.178;15.316;2022-09-16T11:51:35;1.70;;;1.60;;
21798;SDS011;24973;47.178;15.316;2022-09-16T11:54:48;3.53;;;1.60;;
21798;SDS011;24973;47.178;15.316;2022-09-16T11:58:02;1.60;;;1.50;;
21798;SDS011;24973;47.178;15.316;2022-09-16T12:01:02;2.23;;;2.03;;
21798;SDS011;24973;47.178;15.316;2022-09-16T12:04:00;3.87;;;3.60;;
21798;SDS011;24973;47.178;15.316;2022-09-16T12:06:57;3.23;;;2.73;;
21798;SDS011;24973;47.178;15.316;2022-09-16T12:09:55;2.57;;;2.37;;
21798;SDS011;24973;47.178;15.316;2022-09-16T12:12:52;2.47;;;2.27;;
21798;SDS011;24973;47.178;15.316;2022-09-16T12:15:46;2.63;;;2.43;;
21798;SDS011;24973;47.178;15.316;2022-09-16T12:18:40;2.93;;;2.67;;
21798;SDS011;24973;47.178;15.316;2022-09-16T12:21:33;3.40;;;3.10;;
21798;SDS011;24973;47.178;15.316;2022-09-16T12:24:29;2.40;;;2.20;;
21798;SDS011;24973;47.178;15.316;2022-09-16T12:27:33;4.27;;;3.00;;
21798;SDS011;24973;47.178;15.316;2022-09-16T12:30:39;6.97;;;3.33;;
21798;SDS011;24973;47.178;15.316;2022-09-16T12:33:33;4.23;;;3.63;;
21798;SDS011;24973;47.178;15.316;2022-09-16T12:36:30;4.27;;;3.90;;
21798;SDS011;24973;47.178;15.316;2022-09-16T12:39:22;5.57;;;3.97;;
21798;SDS011;24973;47.178;15.316;2022-09-16T12:42:23;3.50;;;3.07;;
21798;SDS011;24973;47.178;15.316;2022-09-16T12:45:53;3.83;;;3.03;;
21798;SDS011;24973;47.178;15.316;2022-09-16T12:49:29;3.33;;;3.00;;
21798;SDS011;24973;47.178;15.316;2022-09-16T12:52:44;4.27;;;3.10;;
21798;SDS011;24973;47.178;15.316;2022-09-16T12:56:11;2.20;;;2.03;;
21798;SDS011;24973;47.178;15.316;2022-09-16T12:59:17;4.17;;;2.63;;
21798;SDS011;24973;47.178;15.316;2022-09-16T13:02:25;1.90;;;1.80;;
21798;SDS011;24973;47.178;15.316;2022-09-16T13:05:24;1.90;;;1.80;;
21798;SDS011;24973;47.178;15.316;2022-09-16T13:08:19;2.63;;;2.43;;
21798;SDS011;24973;47.178;15.316;2022-09-16T13:11:19;2.47;;;2.17;;
21798;SDS011;24973;47.178;15.316;2022-09-16T13:14:32;2.33;;;2.13;;
21798;SDS011;24973;47.178;15.316;2022-09-16T13:17:30;3.73;;;3.10;;
21798;SDS011;24973;47.178;15.316;2022-09-16T13:20:22;3.37;;;2.60;;
21798;SDS011;24973;47.178;15.316;2022-09-16T13:23:19;2.97;;;2.17;;
21798;SDS011;24973;47.178;15.316;2022-09-16T13:26:13;3.47;;;2.37;;
21798;SDS011;24973;47.178;15.316;2022-09-16T13:29:01;3.10;;;2.90;;
21798;SDS011;24973;47.178;15.316;2022-09-16T13:31:51;2.97;;;2.67;;
21798;SDS011;24973;47.178;15.316;2022-09-16T13:34:45;2.97;;;2.73;;
21798;SDS011;24973;47.178;15.316;2022-09-16T13:37:34;3.03;;;2.73;;
21798;SDS011;24973;47.178;15.316;2022-09-16T13:40:23;4.43;;;2.60;;
21798;SDS011;24973;47.178;15.316;2022-09-16T13:43:15;4.13;;;2.77;;
21798;SDS011;24973;47.178;15.316;2022-09-16T13:46:05;3.07;;;2.77;;
21798;SDS011;24973;47.178;15.316;2022-09-16T13:49:02;2.10;;;2.00;;
21798;SDS011;24973;47.178;15.316;2022-09-16T13:52:08;3.67;;;2.87;;
21798;SDS011;24973;47.178;15.316;2022-09-16T13:54:59;3.10;;;2.90;;
21798;SDS011;24973;47.178;15.316;2022-09-16T13:57:57;3.20;;;2.80;;
21798;SDS011;24973;47.178;15.316;2022-09-16T14:00:56;3.80;;;3.50;;
21798;SDS011;24973;47.178;15.316;2022-09-16T14:03:53;4.60;;;2.83;;
21798;SDS011;24973;47.178;15.316;2022-09-16T14:06:52;3.73;;;3.43;;
21798;SDS011;24973;47.178;15.316;2022-09-16T14:09:54;3.13;;;2.80;;
21798;SDS011;24973;47.178;15.316;2022-09-16T14:12:52;4.00;;;3.07;;
21798;SDS011;24973;47.178;15.316;2022-09-16T14:15:49;3.43;;;3.13;;
21798;SDS011;24973;47.178;15.316;2022-09-16T14:18:41;4.03;;;3.67;;
21798;SDS011;24973;47.178;15.316;2022-09-16T14:21:40;4.20;;;3.53;;
21798;SDS011;24973;47.178;15.316;2022-09-16T14:24:35;3.73;;;2.67;;
21798;SDS011;24973;47.178;15.316;2022-09-16T14:27:26;1.97;;;1.87;;
21798;SDS011;24973;47.178;15.316;2022-09-16T14:30:19;2.17;;;1.60;;
21798;SDS011;24973;47.178;15.316;2022-09-16T14:33:09;2.47;;;2.10;;
21798;SDS011;24973;47.178;15.316;2022-09-16T14:35:58;3.57;;;1.30;;
21798;SDS011;24973;47.178;15.316;2022-09-16T14:38:56;1.83;;;1.70;;
21798;SDS011;24973;47.178;15.316;2022-09-16T14:41:50;1.67;;;1.53;;
21798;SDS011;24973;47.178;15.316;2022-09-16T14:44:44;2.47;;;2.27;;
21798;SDS011;24973;47.178;15.316;2022-09-16T14:47:36;1.53;;;1.43;;
21798;SDS011;24973;47.178;15.316;2022-09-16T14:50:36;1.50;;;1.40;;
21798;SDS011;24973;47.178;15.316;2022-09-16T14:53:29;1.50;;;1.40;;
21798;SDS011;24973;47.178;15.316;2022-09-16T14:56:24;1.57;;;1.47;;
21798;SDS011;24973;47.178;15.316;2022-09-16T14:59:13;2.07;;;1.37;;
21798;SDS011;24973;47.178;15.316;2022-09-16T15:02:14;3.07;;;1.27;;
21798;SDS011;24973;47.178;15.316;2022-09-16T15:05:11;3.97;;;1.93;;
21798;SDS011;24973;47.178;15.316;2022-09-16T15:08:08;3.73;;;1.57;;
21798;SDS011;24973;47.178;15.316;2022-09-16T15:11:03;1.50;;;1.40;;
21798;SDS011;24973;47.178;15.316;2022-09-16T15:14:06;2.30;;;1.87;;
21798;SDS011;24973;47.178;15.316;2022-09-16T15:16:56;1.60;;;1.50;;
21798;SDS011;24973;47.178;15.316;2022-09-16T15:19:49;1.70;;;1.60;;
21798;SDS011;24973;47.178;15.316;2022-09-16T15:22:42;1.70;;;1.60;;
21798;SDS011;24973;47.178;15.316;2022-09-16T15:25:32;1.83;;;1.40;;
21798;SDS011;24973;47.178;15.316;2022-09-16T15:28:24;1.90;;;1.80;;
21798;SDS011;24973;47.178;15.316;2022-09-16T15:31:14;1.80;;;1.70;;
21798;SDS011;24973;47.178;15.316;2022-09-16T15:34:18;2.20;;;2.00;;
21798;SDS011;24973;47.178;15.316;2022-09-16T15:40:19;1.80;;;1.53;;
21798;SDS011;24973;47.178;15.316;2022-09-16T15:43:20;1.90;;;1.70;;
21798;SDS011;24973;47.178;15.316;2022-09-16T15:46:16;2.87;;;2.00;;
21798;SDS011;24973;47.178;15.316;2022-09-16T15:49:10;1.83;;;1.63;;
21798;SDS011;24973;47.178;15.316;2022-09-16T15:52:02;1.70;;;1.60;;
21798;SDS011;24973;47.178;15.316;2022-09-16T15:54:56;1.70;;;1.60;;
21798;SDS011;24973;47.178;15.316;2022-09-16T15:57:49;1.60;;;1.50;;
21798;SDS011;24973;47.178;15.316;2022-09-16T16:04:03;1.60;;;1.50;;
21798;SDS011;24973;47.178;15.316;2022-09-16T16:06:54;2.13;;;1.80;;
21798;SDS011;24973;47.178;15.316;2022-09-16T16:09:45;2.43;;;1.70;;
21798;SDS011;24973;47.178;15.316;2022-09-16T16:12:34;1.90;;;1.80;;
21798;SDS011;24973;47.178;15.316;2022-09-16T16:15:23;1.60;;;1.50;;
21798;SDS011;24973;47.178;15.316;2022-09-16T16:18:15;2.43;;;2.23;;
21798;SDS011;24973;47.178;15.316;2022-09-16T16:21:05;2.40;;;2.10;;
21798;SDS011;24973;47.178;15.316;2022-09-16T16:23:56;1.97;;;1.83;;
21798;SDS011;24973;47.178;15.316;2022-09-16T16:26:45;1.43;;;1.33;;
21798;SDS011;24973;47.178;15.316;2022-09-16T16:29:33;2.57;;;1.80;;
21798;SDS011;24973;47.178;15.316;2022-09-16T16:32:24;2.40;;;2.20;;
21798;SDS011;24973;47.178;15.316;2022-09-16T16:35:13;2.00;;;1.80;;
21798;SDS011;24973;47.178;15.316;2022-09-16T16:38:03;1.70;;;1.60;;
21798;SDS011;24973;47.178;15.316;2022-09-16T16:40:52;2.30;;;2.10;;
21798;SDS011;24973;47.178;15.316;2022-09-16T16:43:40;3.07;;;1.93;;
21798;SDS011;24973;47.178;15.316;2022-09-16T16:46:29;3.00;;;1.70;;
21798;SDS011;24973;47.178;15.316;2022-09-16T16:49:18;2.13;;;1.73;;
21798;SDS011;24973;47.178;15.316;2022-09-16T16:52:07;2.13;;;1.93;;
21798;SDS011;24973;47.178;15.316;2022-09-16T16:54:57;1.80;;;1.70;;
21798;SDS011;24973;47.178;15.316;2022-09-16T16:57:46;4.10;;;2.90;;
21798;SDS011;24973;47.178;15.316;2022-09-16T17:00:36;3.63;;;3.13;;
21798;SDS011;24973;47.178;15.316;2022-09-16T17:03:28;2.70;;;2.50;;
21798;SDS011;24973;47.178;15.316;2022-09-16T17:06:17;1.80;;;1.70;;
21798;SDS011;24973;47.178;15.316;2022-09-16T17:09:06;1.70;;;1.60;;
21798;SDS011;24973;47.178;15.316;2022-09-16T17:12:00;3.50;;;2.60;;
21798;SDS011;24973;47.178;15.316;2022-09-16T17:14:50;2.47;;;2.27;;
21798;SDS011;24973;47.178;15.316;2022-09-16T17:17:39;2.20;;;2.00;;
21798;SDS011;24973;47.178;15.316;2022-09-16T17:20:27;2.47;;;1.90;;
21798;SDS011;24973;47.178;15.316;2022-09-16T17:23:16;1.77;;;1.67;;